Startpagina
METAR-TAF:

METAR-TAF

Vliegvelden :

Mafikeng, Zuid-Afrika

breedte: 25-47S, lengte: 025-32E, hoogte: 1281 m

Actueel weer

Dit bericht is 1 uur en het 57 minuten geleden gemaakt, om 18:00 UTC
Wind 5 kt uit het noordoosten
Temperatuur 25°C
Vochtigheid 50%
Druk 1020 hPa
Zicht 10 km of meer
geen wolken onder 1500 m en geen cumulonimbus

METAR: FAMM 181800Z 05005KT CAVOK 25/14 Q1020 NOSIG

Tijdstip: 21:57 (19:57 UTC)

Verwachting

Dit bericht is 10 uur en het 57 minuten geleden gemaakt, om 09:00 UTC
Verwachting geldig van 18 om 10 UTC tot 18 om 18 UTC
Wind 15 kt uit het noordnoordoosten
Zicht 10 km of meer
Gebroken wolken op 3500 ft
Kans 30% :
Tijdelijke
van 18 om 10 UTC tot 18 om 12 UTC
Weinig wolken op 4000 ft, Stapelwolken.
Kans 30% :
Tijdelijke
van 18 om 13 UTC tot 18 om 18 UTC
Zicht: 5000 m
Weinig wolken op 4000 ft, Cumulonimbus.
onweer, regen

TAF: FAMM 180900Z 1810/1818 03015KT 9999 BKN035 TX30/1814Z TN20/1818Z PROB30 TEMPO 1810/1812 FEW040TCU PROB30 TEMPO 1813/1818 5000 TSRA FEW040CB

Waarnemingen en weersverwachtingen van meer dan 4000 vliegvelden (METAR en TAF).

De beschikbare stations zijn de gele en rode punten op de kaart.

Ga met uw muis naar het station om de naam te zien.

Klik dan om waarnemingen en weersverwachtingen te zien.

kaart wijzigen: klik op de groene knoppen met een zwart kruis om in te zoomen, op de groene knop met een streepje om uit te zoomen of op de groene pijlen voor aangrenzende kaarten.


METAR-TAF: